createdAt,value
2023-04-17T00:01:18.233Z,49.10
2023-04-17T00:03:47.403Z,49.43
2023-04-17T00:06:16.495Z,49.67
2023-04-17T00:08:44.679Z,48.57
2023-04-17T00:11:12.942Z,47.90
2023-04-17T00:13:44.032Z,50.37
2023-04-17T00:16:13.806Z,49.27
2023-04-17T00:18:42.552Z,51.13
2023-04-17T00:21:10.596Z,50.27
2023-04-17T00:23:38.859Z,50.43
2023-04-17T00:26:06.872Z,51.27
2023-04-17T00:28:34.897Z,52.43
2023-04-17T00:31:04.702Z,52.10
2023-04-17T00:33:33.384Z,51.53
2023-04-17T00:36:01.574Z,52.70
2023-04-17T00:38:29.651Z,52.60
2023-04-17T00:40:57.797Z,52.93
2023-04-17T00:43:25.893Z,52.43
2023-04-17T00:45:55.112Z,53.83
2023-04-17T00:48:25.195Z,53.37
2023-04-17T00:50:55.485Z,54.00
2023-04-17T00:53:24.024Z,55.47
2023-04-17T00:55:53.210Z,54.10
2023-04-17T00:58:22.209Z,53.83
2023-04-17T01:00:50.822Z,54.80
2023-04-17T01:03:19.088Z,54.33
2023-04-17T01:05:52.424Z,53.33
2023-04-17T01:08:20.889Z,53.17
2023-04-17T01:10:49.196Z,54.13
2023-04-17T01:13:17.340Z,54.73
2023-04-17T01:15:47.112Z,55.33
2023-04-17T01:18:15.342Z,56.80
2023-04-17T01:20:43.428Z,56.27
2023-04-17T01:23:12.884Z,57.30
2023-04-17T01:25:42.672Z,55.83
2023-04-17T01:28:10.850Z,55.80
2023-04-17T01:30:39.063Z,55.60
2023-04-17T01:33:09.449Z,54.97
2023-04-17T01:35:38.026Z,54.93
2023-04-17T01:38:06.217Z,55.43
2023-04-17T01:40:34.339Z,53.23
2023-04-17T01:43:03.761Z,55.17
2023-04-17T01:45:32.003Z,54.57
2023-04-17T01:48:01.021Z,53.17
2023-04-17T01:50:29.236Z,54.60
2023-04-17T01:52:57.336Z,54.87
2023-04-17T01:55:25.457Z,55.57
2023-04-17T01:57:53.513Z,55.63
2023-04-17T02:00:23.785Z,57.53
2023-04-17T02:02:51.995Z,55.67
2023-04-17T02:05:20.299Z,57.33
2023-04-17T02:07:50.895Z,57.90
2023-04-17T02:10:20.068Z,57.83
2023-04-17T02:12:48.111Z,58.73
2023-04-17T02:15:16.557Z,58.77
2023-04-17T02:17:47.195Z,59.40
2023-04-17T02:20:15.648Z,60.63
2023-04-17T02:22:43.754Z,61.97
2023-04-17T02:25:11.777Z,63.23
2023-04-17T02:27:39.854Z,64.30
2023-04-17T02:30:09.838Z,63.67
2023-04-17T02:32:38.031Z,65.10
2023-04-17T02:35:09.410Z,66.93
2023-04-17T02:37:37.817Z,67.67
2023-04-17T02:40:08.046Z,67.77
2023-04-17T02:42:36.195Z,70.17
2023-04-17T02:45:05.778Z,67.77
2023-04-17T02:47:33.971Z,70.03
2023-04-17T02:50:02.938Z,69.87
2023-04-17T02:52:37.718Z,70.10
2023-04-17T02:55:07.028Z,72.43
2023-04-17T02:57:35.559Z,73.27
2023-04-17T03:00:07.921Z,74.40
2023-04-17T03:02:38.229Z,75.43
2023-04-17T03:05:07.325Z,77.03
2023-04-17T03:07:37.590Z,77.07
2023-04-17T03:10:06.439Z,75.43
2023-04-17T03:12:34.635Z,76.67
2023-04-17T03:15:02.664Z,76.53
2023-04-17T03:17:31.139Z,77.40
2023-04-17T03:19:59.256Z,75.33
2023-04-17T03:22:27.370Z,75.83
2023-04-17T03:24:56.819Z,77.07
2023-04-17T03:27:27.203Z,75.10
2023-04-17T03:29:56.647Z,74.07
2023-04-17T03:32:26.644Z,74.63
2023-04-17T03:34:54.820Z,73.00
2023-04-17T03:37:23.109Z,69.97
2023-04-17T03:39:52.162Z,71.13
2023-04-17T03:42:21.688Z,71.10
2023-04-17T03:44:49.856Z,70.17
2023-04-17T03:47:18.047Z,70.73
2023-04-17T03:49:46.946Z,71.63
2023-04-17T03:52:15.438Z,71.77
2023-04-17T03:54:44.085Z,73.77
2023-04-17T03:57:13.469Z,76.40
2023-04-17T03:59:42.927Z,77.43
2023-04-17T04:02:11.271Z,80.17
2023-04-17T04:04:39.530Z,79.33
2023-04-17T04:07:12.660Z,80.37
2023-04-17T04:09:40.825Z,79.47
2023-04-17T04:12:09.552Z,79.63
2023-04-17T04:14:43.327Z,77.73
2023-04-17T04:17:12.292Z,75.97
2023-04-17T04:19:41.192Z,76.03
2023-04-17T04:22:10.372Z,75.33
2023-04-17T04:24:45.729Z,75.10
2023-04-17T04:27:18.211Z,73.77
2023-04-17T04:29:49.743Z,76.10
2023-04-17T04:32:21.087Z,74.67
2023-04-17T04:34:50.828Z,74.00
2023-04-17T04:37:22.130Z,74.70
2023-04-17T04:39:54.029Z,74.77
2023-04-17T04:42:24.006Z,75.23
2023-04-17T04:45:04.495Z,77.57
2023-04-17T04:47:33.925Z,73.83
2023-04-17T04:50:02.066Z,73.53
2023-04-17T04:52:30.138Z,74.00
2023-04-17T04:55:01.928Z,73.90
2023-04-17T04:57:31.976Z,74.10
2023-04-17T05:00:06.448Z,72.13
2023-04-17T05:02:39.830Z,73.30
2023-04-17T05:05:10.892Z,74.53
2023-04-17T05:07:38.998Z,75.13
2023-04-17T05:10:11.312Z,75.07
2023-04-17T05:12:44.552Z,75.27
2023-04-17T05:15:16.357Z,77.60
2023-04-17T05:17:45.236Z,78.40
2023-04-17T05:20:15.097Z,78.37
2023-04-17T05:22:54.787Z,78.57
2023-04-17T05:25:23.903Z,78.93
2023-04-17T05:27:52.854Z,79.10
2023-04-17T05:30:22.493Z,78.77
2023-04-17T05:32:56.676Z,78.77
2023-04-17T05:35:31.817Z,80.07
2023-04-17T05:38:00.628Z,79.77
2023-04-17T05:40:28.718Z,79.17
2023-04-17T05:42:56.886Z,79.77
2023-04-17T05:45:27.098Z,80.83
2023-04-17T05:47:55.229Z,81.50
2023-04-17T05:50:23.254Z,81.80
2023-04-17T05:52:51.454Z,81.47
2023-04-17T05:55:20.396Z,82.00
2023-04-17T05:57:52.320Z,84.70
2023-04-17T06:00:22.773Z,81.93
2023-04-17T06:02:58.063Z,82.60
2023-04-17T06:05:33.725Z,79.50
2023-04-17T06:08:01.950Z,77.17
2023-04-17T06:10:29.955Z,74.20
2023-04-17T06:12:58.007Z,71.50
2023-04-17T06:15:26.712Z,68.30
2023-04-17T06:17:54.904Z,69.80
2023-04-17T06:20:24.518Z,66.27
2023-04-17T06:22:52.583Z,63.40
2023-04-17T06:25:20.574Z,64.40
2023-04-17T06:27:48.631Z,64.13
2023-04-17T06:30:16.858Z,64.10
2023-04-17T06:32:51.375Z,64.20
2023-04-17T06:35:21.061Z,59.93
2023-04-17T06:37:55.327Z,60.20
2023-04-17T06:40:23.824Z,58.40
2023-04-17T06:42:52.986Z,55.83
2023-04-17T06:45:22.926Z,55.23
2023-04-17T06:47:51.032Z,53.27
2023-04-17T06:50:19.276Z,53.47
2023-04-17T06:52:47.429Z,52.80
2023-04-17T06:55:17.016Z,51.53
2023-04-17T06:57:45.022Z,53.23
2023-04-17T07:00:14.393Z,52.70
2023-04-17T07:02:42.416Z,49.73
2023-04-17T07:05:11.196Z,46.93
2023-04-17T07:07:39.888Z,45.47
2023-04-17T07:10:08.924Z,43.90
2023-04-17T07:12:38.349Z,42.30
2023-04-17T07:15:07.378Z,38.87
2023-04-17T07:17:35.545Z,39.97
2023-04-17T07:20:05.407Z,37.60
2023-04-17T07:22:34.332Z,37.80
2023-04-17T07:25:02.332Z,36.00
2023-04-17T07:27:30.451Z,36.20
2023-04-17T07:29:59.922Z,36.63
2023-04-17T07:32:28.628Z,37.50
2023-04-17T07:34:56.700Z,38.63
2023-04-17T07:37:24.788Z,38.70
2023-04-17T07:39:53.700Z,39.63
2023-04-17T07:42:21.868Z,41.13
2023-04-17T07:44:50.076Z,40.03
2023-04-17T07:47:19.667Z,40.43
2023-04-17T07:49:49.216Z,40.07
2023-04-17T07:52:18.187Z,39.70
2023-04-17T07:54:46.343Z,39.57
2023-04-17T07:57:15.260Z,41.00
2023-04-17T07:59:43.255Z,40.83
2023-04-17T08:02:11.798Z,40.50
2023-04-17T08:04:41.936Z,39.03
2023-04-17T08:07:11.347Z,38.73
2023-04-17T08:09:40.246Z,38.07
2023-04-17T08:12:09.199Z,38.77
2023-04-17T08:14:37.217Z,40.33
2023-04-17T08:17:07.627Z,41.43
2023-04-17T08:19:36.037Z,44.40
2023-04-17T08:22:07.402Z,48.10
2023-04-17T08:24:35.596Z,49.40
2023-04-17T08:27:03.687Z,50.63
2023-04-17T08:29:31.729Z,54.80
2023-04-17T08:32:13.360Z,57.13
2023-04-17T08:34:42.624Z,58.60
2023-04-17T08:37:11.982Z,59.90
2023-04-17T08:40:19.993Z,60.13
2023-04-17T08:42:54.039Z,64.67
2023-04-17T08:45:25.046Z,64.47
2023-04-17T08:47:53.334Z,65.23
2023-04-17T08:50:23.515Z,66.40
2023-04-17T08:52:53.715Z,68.63
2023-04-17T08:55:25.437Z,69.27
2023-04-17T08:58:01.069Z,71.47
2023-04-17T09:00:31.511Z,73.00
2023-04-17T09:03:01.245Z,72.00
2023-04-17T09:05:33.600Z,73.33
2023-04-17T09:08:11.663Z,74.23
2023-04-17T09:10:41.784Z,73.10
2023-04-17T09:13:10.619Z,71.57
2023-04-17T09:15:38.929Z,72.93
2023-04-17T09:18:07.281Z,69.77
2023-04-17T09:20:50.234Z,70.53
2023-04-17T09:23:20.027Z,70.00
2023-04-17T09:25:48.069Z,70.47
2023-04-17T09:28:16.695Z,67.40
2023-04-17T09:30:44.918Z,67.17
2023-04-17T09:33:13.072Z,64.43
2023-04-17T09:35:41.150Z,65.30
2023-04-17T09:38:09.252Z,62.93
2023-04-17T09:40:45.234Z,60.10
2023-04-17T09:43:13.354Z,56.00
2023-04-17T09:45:42.921Z,54.63
2023-04-17T09:48:13.314Z,52.53
2023-04-17T09:50:41.740Z,47.97
2023-04-17T09:53:10.116Z,45.10
2023-04-17T09:55:39.494Z,44.55
2023-04-17T09:58:09.065Z,41.27
2023-04-17T10:00:38.271Z,38.92
2023-04-17T10:03:08.338Z,36.05
2023-04-17T10:05:36.894Z,34.70
2023-04-17T10:08:05.730Z,32.30
2023-04-17T10:10:36.583Z,31.48
2023-04-17T10:13:08.075Z,29.73
2023-04-17T10:15:40.718Z,29.37
2023-04-17T10:18:23.679Z,30.08
2023-04-17T10:20:53.667Z,28.42
2023-04-17T10:23:32.960Z,26.65
2023-04-17T10:26:45.937Z,26.00
2023-04-17T10:29:14.081Z,24.33
2023-04-17T10:32:26.031Z,25.50
2023-04-17T10:34:57.212Z,22.88
2023-04-17T10:37:58.429Z,22.00
2023-04-17T10:40:33.893Z,23.10
2023-04-17T10:43:08.015Z,21.20
2023-04-17T10:45:59.861Z,19.42
2023-04-17T10:48:31.199Z,20.35
2023-04-17T10:51:01.778Z,19.13
2023-04-17T10:53:44.086Z,19.55
2023-04-17T10:56:13.648Z,19.17
2023-04-17T10:58:57.968Z,19.65
2023-04-17T11:01:28.912Z,19.85
2023-04-17T11:03:58.163Z,19.85
2023-04-17T11:06:29.985Z,17.75
2023-04-17T11:08:58.904Z,17.58
2023-04-17T11:11:40.390Z,17.10
2023-04-17T11:14:14.405Z,16.33
2023-04-17T11:16:44.360Z,18.60
2023-04-17T11:19:14.757Z,17.88
2023-04-17T11:21:45.229Z,18.65
2023-04-17T11:24:13.314Z,17.85
2023-04-17T11:26:45.509Z,19.05
2023-04-17T11:29:16.813Z,18.80
2023-04-17T11:31:46.037Z,20.33
2023-04-17T11:34:15.686Z,20.50
2023-04-17T11:36:51.589Z,20.58
2023-04-17T11:39:20.222Z,20.20
2023-04-17T11:41:48.582Z,19.88
2023-04-17T11:44:20.195Z,20.42
2023-04-17T11:46:51.062Z,20.13
2023-04-17T11:49:25.629Z,20.15
2023-04-17T11:51:56.770Z,18.67
2023-04-17T11:54:28.729Z,18.92
2023-04-17T11:57:01.780Z,20.57
2023-04-17T11:59:34.358Z,20.33
2023-04-17T12:02:03.403Z,22.17
2023-04-17T12:04:34.381Z,22.20
2023-04-17T12:07:05.755Z,22.50
2023-04-17T12:09:34.309Z,21.63
2023-04-17T12:12:03.872Z,21.77
2023-04-17T12:14:32.277Z,20.83
2023-04-17T12:17:00.689Z,19.03
2023-04-17T12:19:29.936Z,19.30
2023-04-17T12:21:59.321Z,20.23
2023-04-17T12:24:28.836Z,20.20
2023-04-17T12:26:58.711Z,19.70
2023-04-17T12:29:42.314Z,20.03
2023-04-17T12:32:12.674Z,21.93
2023-04-17T12:34:41.123Z,22.27
2023-04-17T12:37:09.431Z,23.70
2023-04-17T12:39:38.765Z,23.57
2023-04-17T12:42:06.985Z,24.53
2023-04-17T12:44:35.034Z,24.40
2023-04-17T12:47:03.473Z,25.13
2023-04-17T12:49:31.528Z,25.27
2023-04-17T12:52:02.410Z,26.70
2023-04-17T12:54:31.483Z,26.63
2023-04-17T12:57:01.592Z,26.30
2023-04-17T12:59:29.702Z,26.60
2023-04-17T13:01:58.024Z,25.77
2023-04-17T13:04:26.321Z,25.93
2023-04-17T13:06:54.549Z,26.73
2023-04-17T13:09:22.617Z,26.77
2023-04-17T13:11:50.949Z,28.07
2023-04-17T13:14:20.780Z,30.17
2023-04-17T13:16:50.767Z,30.83
2023-04-17T13:19:18.974Z,29.87
2023-04-17T13:21:47.009Z,31.17
2023-04-17T13:24:15.698Z,33.57
2023-04-17T13:26:43.795Z,35.50
2023-04-17T13:29:12.580Z,34.87
2023-04-17T13:31:42.273Z,33.27
2023-04-17T13:34:11.798Z,32.70
2023-04-17T13:36:39.806Z,32.83
2023-04-17T13:39:08.634Z,33.13
2023-04-17T13:41:39.709Z,33.27
2023-04-17T13:44:08.262Z,33.50
2023-04-17T13:46:36.693Z,33.23
2023-04-17T13:49:06.259Z,33.33
2023-04-17T13:51:34.331Z,32.37
2023-04-17T13:54:02.487Z,32.13
2023-04-17T13:56:30.670Z,31.90
2023-04-17T13:58:59.563Z,31.60
2023-04-17T14:01:27.719Z,31.40
2023-04-17T14:03:55.997Z,30.37
2023-04-17T14:06:28.176Z,30.87
2023-04-17T14:08:56.757Z,29.60
2023-04-17T14:11:24.821Z,27.97
2023-04-17T14:13:52.873Z,25.93
2023-04-17T14:16:21.392Z,27.37
2023-04-17T14:18:50.212Z,27.37
2023-04-17T14:21:19.106Z,25.60
2023-04-17T14:23:48.946Z,26.27
2023-04-17T14:26:17.082Z,26.97
2023-04-17T14:28:45.061Z,27.13
2023-04-17T14:31:13.206Z,28.00
2023-04-17T14:33:41.257Z,29.33
2023-04-17T14:36:10.127Z,29.93
2023-04-17T14:38:38.983Z,31.00
2023-04-17T14:41:08.712Z,31.83
2023-04-17T14:43:36.858Z,34.07
2023-04-17T14:46:05.078Z,35.70
2023-04-17T14:48:38.408Z,36.73
2023-04-17T14:51:17.003Z,38.70
2023-04-17T14:53:45.116Z,40.80
2023-04-17T14:56:14.684Z,43.93
2023-04-17T14:58:42.744Z,45.53
2023-04-17T15:01:11.567Z,48.47
2023-04-17T15:03:39.825Z,50.53
2023-04-17T15:06:08.926Z,51.00
2023-04-17T15:08:36.962Z,53.30
2023-04-17T15:11:05.196Z,54.43
2023-04-17T15:13:34.596Z,56.30
2023-04-17T15:16:02.841Z,57.57
2023-04-17T15:18:31.037Z,58.87
2023-04-17T15:20:59.345Z,59.87
2023-04-17T15:23:28.758Z,61.67
2023-04-17T15:25:57.683Z,63.57
2023-04-17T15:28:26.071Z,64.80
2023-04-17T15:30:56.946Z,66.70
2023-04-17T15:33:25.038Z,67.60
2023-04-17T15:35:56.614Z,69.90
2023-04-17T15:38:25.116Z,71.40
2023-04-17T15:40:53.270Z,71.80
2023-04-17T15:43:22.051Z,72.23
2023-04-17T15:45:50.507Z,71.90
2023-04-17T15:48:20.072Z,70.03
2023-04-17T15:50:48.160Z,67.50
2023-04-17T15:53:16.277Z,66.63
2023-04-17T15:55:44.322Z,66.77
2023-04-17T15:58:12.446Z,67.17
2023-04-17T16:00:40.490Z,65.90
2023-04-17T16:03:08.741Z,65.57
2023-04-17T16:05:38.313Z,63.63
2023-04-17T16:08:06.442Z,63.03
2023-04-17T16:10:35.256Z,60.70
2023-04-17T16:13:03.369Z,59.77
2023-04-17T16:15:31.662Z,59.13
2023-04-17T16:18:01.394Z,58.33
2023-04-17T16:20:30.729Z,57.20
2023-04-17T16:23:00.191Z,56.83
2023-04-17T16:25:28.376Z,56.53
2023-04-17T16:27:56.405Z,57.77
2023-04-17T16:30:24.621Z,57.50
2023-04-17T16:32:52.702Z,57.77
2023-04-17T16:35:20.826Z,57.70
2023-04-17T16:37:48.835Z,57.03
2023-04-17T16:40:18.550Z,56.60
2023-04-17T16:42:51.203Z,56.43
2023-04-17T16:45:23.240Z,57.37
2023-04-17T16:47:51.378Z,57.80
2023-04-17T16:50:19.727Z,57.43
2023-04-17T16:52:51.962Z,58.27
2023-04-17T16:55:25.207Z,57.80
2023-04-17T16:57:54.662Z,58.43
2023-04-17T17:00:23.482Z,59.70
2023-04-17T17:02:52.198Z,60.00
2023-04-17T17:05:20.674Z,60.03
2023-04-17T17:07:49.065Z,60.43
2023-04-17T17:10:17.167Z,59.50
2023-04-17T17:12:46.731Z,59.47
2023-04-17T17:15:14.798Z,60.07
2023-04-17T17:17:43.153Z,61.17
2023-04-17T17:20:11.767Z,60.93
2023-04-17T17:22:39.804Z,61.97
2023-04-17T17:25:08.929Z,62.53
2023-04-17T17:27:37.005Z,63.77
2023-04-17T17:30:07.483Z,63.23
2023-04-17T17:32:35.840Z,64.37
2023-04-17T17:35:03.875Z,64.63
2023-04-17T17:37:32.058Z,65.47
2023-04-17T17:40:00.122Z,66.70
2023-04-17T17:42:28.194Z,67.77
2023-04-17T17:44:56.516Z,69.70
2023-04-17T17:47:26.102Z,68.93
2023-04-17T17:49:54.121Z,69.47
2023-04-17T17:52:22.296Z,69.63
2023-04-17T17:54:50.282Z,70.43
2023-04-17T17:57:18.407Z,70.90
2023-04-17T17:59:46.494Z,71.63
2023-04-17T18:02:14.774Z,70.67
2023-04-17T18:04:44.562Z,72.27
2023-04-17T18:07:12.841Z,72.23
2023-04-17T18:09:40.876Z,72.07
2023-04-17T18:12:09.152Z,71.83
2023-04-17T18:14:37.287Z,73.00
2023-04-17T18:17:05.416Z,70.13
2023-04-17T18:19:34.391Z,70.30
2023-04-17T18:22:03.865Z,69.33
2023-04-17T18:24:31.975Z,69.83
2023-04-17T18:27:00.327Z,70.17
2023-04-17T18:29:28.309Z,70.37
2023-04-17T18:31:56.445Z,70.83
2023-04-17T18:34:24.596Z,70.70
2023-04-17T18:36:53.028Z,70.07
2023-04-17T18:39:22.433Z,69.77
2023-04-17T18:41:50.500Z,69.00
2023-04-17T18:44:18.691Z,69.60
2023-04-17T18:46:47.864Z,69.50
2023-04-17T18:49:16.158Z,69.97
2023-04-17T18:51:47.815Z,69.97
2023-04-17T18:54:16.384Z,69.60
2023-04-17T18:56:46.117Z,71.03
2023-04-17T18:59:14.641Z,71.63
2023-04-17T19:01:43.194Z,71.10
2023-04-17T19:04:11.498Z,72.07
2023-04-17T19:06:39.682Z,71.73
2023-04-17T19:09:07.830Z,72.17
2023-04-17T19:11:35.835Z,73.13
2023-04-17T19:14:05.399Z,75.60
2023-04-17T19:16:33.452Z,73.67
2023-04-17T19:19:01.594Z,73.77
2023-04-17T19:21:31.743Z,74.27
2023-04-17T19:24:00.037Z,74.67
2023-04-17T19:26:28.067Z,74.53
2023-04-17T19:28:56.416Z,74.53
2023-04-17T19:31:25.839Z,74.27
2023-04-17T19:33:56.206Z,74.87
2023-04-17T19:36:24.675Z,74.03
2023-04-17T19:38:54.979Z,74.13
2023-04-17T19:41:23.047Z,75.83
2023-04-17T19:43:55.476Z,74.47
2023-04-17T19:46:27.517Z,76.60
2023-04-17T19:48:55.722Z,75.77
2023-04-17T19:51:23.700Z,76.23
2023-04-17T19:53:53.538Z,75.20
2023-04-17T19:56:21.711Z,75.20
2023-04-17T19:58:49.812Z,76.40
2023-04-17T20:01:18.123Z,75.73
2023-04-17T20:03:47.759Z,77.00
2023-04-17T20:06:16.049Z,75.93
2023-04-17T20:08:44.113Z,76.43
2023-04-17T20:11:12.916Z,77.20
2023-04-17T20:13:40.948Z,76.37
2023-04-17T20:16:09.263Z,76.57
2023-04-17T20:18:38.036Z,77.03
2023-04-17T20:21:07.532Z,76.17
2023-04-17T20:23:35.596Z,77.37
2023-04-17T20:26:03.886Z,76.70
2023-04-17T20:28:31.926Z,77.20
2023-04-17T20:31:00.078Z,78.20
2023-04-17T20:33:28.402Z,79.17
2023-04-17T20:35:56.557Z,78.00
2023-04-17T20:38:25.990Z,78.53
2023-04-17T20:40:54.094Z,78.87
2023-04-17T20:43:22.091Z,79.50
2023-04-17T20:45:50.616Z,79.07
2023-04-17T20:48:19.950Z,79.87
2023-04-17T20:50:48.076Z,78.90
2023-04-17T20:53:16.045Z,79.50
2023-04-17T20:55:47.034Z,78.77
2023-04-17T20:58:15.159Z,79.53
2023-04-17T21:00:54.408Z,79.50
2023-04-17T21:03:30.135Z,79.43
2023-04-17T21:05:58.477Z,79.77
2023-04-17T21:08:26.778Z,79.73
2023-04-17T21:10:56.405Z,79.80
2023-04-17T21:13:24.690Z,80.30
2023-04-17T21:15:52.788Z,79.40
2023-04-17T21:18:20.916Z,80.50
2023-04-17T21:20:48.975Z,80.23
2023-04-17T21:23:17.210Z,80.13
2023-04-17T21:25:45.198Z,80.37
2023-04-17T21:28:14.825Z,80.63
2023-04-17T21:30:42.865Z,80.87
2023-04-17T21:33:10.972Z,80.90
2023-04-17T21:35:39.315Z,81.10
2023-04-17T21:38:07.409Z,80.07
2023-04-17T21:40:37.087Z,78.80
2023-04-17T21:43:05.756Z,80.13
2023-04-17T21:45:35.106Z,78.60
2023-04-17T21:48:03.465Z,79.57
2023-04-17T21:50:31.850Z,80.33
2023-04-17T21:53:00.055Z,80.40
2023-04-17T21:55:28.376Z,80.30
2023-04-17T21:57:56.472Z,80.30
2023-04-17T22:00:24.537Z,81.07
2023-04-17T22:02:54.467Z,80.30
2023-04-17T22:05:22.711Z,80.80
2023-04-17T22:07:55.078Z,81.37
2023-04-17T22:10:24.266Z,82.43
2023-04-17T22:12:52.523Z,81.57
2023-04-17T22:15:20.640Z,81.87
2023-04-17T22:17:48.801Z,82.37
2023-04-17T22:20:18.344Z,82.77
2023-04-17T22:22:47.501Z,82.73
2023-04-17T22:25:15.651Z,82.97
2023-04-17T22:27:43.753Z,83.60
2023-04-17T22:30:12.194Z,84.70
2023-04-17T22:32:40.299Z,84.70
2023-04-17T22:35:09.858Z,84.50
2023-04-17T22:37:39.265Z,85.87
2023-04-17T22:40:09.009Z,84.50
2023-04-17T22:42:55.333Z,85.57
2023-04-17T22:45:47.821Z,86.33
2023-04-17T22:48:16.029Z,87.57
2023-04-17T22:50:45.551Z,87.37
2023-04-17T22:53:15.062Z,87.40
2023-04-17T22:55:43.238Z,87.73
2023-04-17T22:58:11.571Z,88.47
2023-04-17T23:00:39.711Z,87.80
2023-04-17T23:03:07.936Z,89.03
2023-04-17T23:05:36.463Z,89.27
2023-04-17T23:08:04.495Z,88.70
2023-04-17T23:11:27.721Z,89.63
2023-04-17T23:14:20.544Z,91.80
2023-04-17T23:16:48.686Z,90.47
2023-04-17T23:19:16.745Z,90.07
2023-04-17T23:21:44.803Z,90.13
2023-04-17T23:24:13.104Z,90.53
2023-04-17T23:26:41.927Z,90.30
2023-04-17T23:29:09.924Z,90.70
2023-04-17T23:31:39.508Z,89.53
2023-04-17T23:34:07.584Z,90.03
2023-04-17T23:36:35.641Z,89.63
2023-04-17T23:39:05.139Z,89.33
2023-04-17T23:41:33.809Z,88.23
2023-04-17T23:44:01.863Z,88.97
2023-04-17T23:46:30.003Z,88.20
2023-04-17T23:48:59.351Z,88.90
2023-04-17T23:51:27.712Z,88.03
2023-04-17T23:53:56.078Z,87.57
2023-04-17T23:56:24.094Z,88.47
2023-04-17T23:58:52.050Z,87.73
